Time;durP1;ratioP1;P1;durP2;ratioP2;P2;SDS_P1;SDS_P2;PMS_P1;PMS_P2;Temp;Humidity;BMP_temperature;BMP_pressure;BME280_temperature;BME280_humidity;BME280_pressure;Samples;Min_cycle;Max_cycle;Signal;HPM_P1;HPM_P2
2021/10/23 00:01:38;;;;;;;1.50;1.10;;;9.30;98.00;;;;;;5016578;28;20524;-67
2021/10/23 00:04:05;;;;;;;1.20;1.00;;;9.30;98.00;;;;;;5034736;28;20462;-67
2021/10/23 00:06:33;;;;;;;1.20;1.10;;;9.40;98.00;;;;;;5034545;28;20493;-67
2021/10/23 00:09:00;;;;;;;1.20;1.10;;;9.40;98.00;;;;;;5034713;28;20491;-67
2021/10/23 00:11:27;;;;;;;1.30;1.10;;;9.30;98.00;;;;;;5034444;28;20517;-67
2021/10/23 00:13:54;;;;;;;1.20;1.00;;;9.30;98.00;;;;;;5034537;28;20487;-67
2021/10/23 00:16:22;;;;;;;1.30;1.03;;;9.40;98.00;;;;;;5016569;28;20861;-67
2021/10/23 00:18:49;;;;;;;1.20;1.00;;;9.40;98.00;;;;;;5034530;28;20466;-67
2021/10/23 00:21:16;;;;;;;1.20;1.00;;;9.50;98.00;;;;;;5034394;28;20937;-67
2021/10/23 00:23:44;;;;;;;1.20;1.00;;;9.40;98.00;;;;;;5034538;28;20465;-67
2021/10/23 00:26:11;;;;;;;1.37;1.10;;;9.30;98.00;;;;;;5034264;28;20490;-67
2021/10/23 00:28:39;;;;;;;1.40;1.23;;;9.30;98.00;;;;;;5034332;28;20465;-67
2021/10/23 00:31:07;;;;;;;1.20;1.00;;;9.20;98.00;;;;;;5034226;28;20493;-66
2021/10/23 00:33:34;;;;;;;1.27;1.07;;;9.20;98.00;;;;;;5034114;28;20457;-67
2021/10/23 00:36:02;;;;;;;1.20;1.00;;;9.00;98.00;;;;;;5034243;28;20588;-67
2021/10/23 00:38:29;;;;;;;1.30;1.10;;;9.00;98.00;;;;;;5034246;28;20514;-67
2021/10/23 00:40:57;;;;;;;1.70;1.13;;;9.20;98.00;;;;;;5033908;28;20490;-67
2021/10/23 00:43:24;;;;;;;1.80;1.30;;;9.30;98.00;;;;;;5034202;28;20513;-67
2021/10/23 00:45:52;;;;;;;1.20;1.10;;;9.40;98.00;;;;;;5034271;28;20489;-67
2021/10/23 00:48:19;;;;;;;1.20;1.00;;;9.40;98.00;;;;;;5033928;28;20458;-67
2021/10/23 00:50:47;;;;;;;1.23;1.13;;;9.40;98.00;;;;;;5033961;28;20482;-66
2021/10/23 00:53:14;;;;;;;1.20;1.00;;;9.40;98.00;;;;;;5033816;28;20531;-67
2021/10/23 00:55:41;;;;;;;1.97;1.10;;;9.50;98.00;;;;;;5033571;28;20470;-67
2021/10/23 00:58:10;;;;;;;1.20;1.10;;;9.30;98.00;;;;;;5033816;28;20855;-67
2021/10/23 01:00:37;;;;;;;1.20;0.93;;;9.10;98.00;;;;;;5033526;28;20501;-66
2021/10/23 01:03:04;;;;;;;1.40;1.20;;;9.10;98.00;;;;;;5033465;28;20466;-67
2021/10/23 01:05:31;;;;;;;1.20;1.00;;;9.10;98.00;;;;;;5032342;28;20934;-67
2021/10/23 01:08:00;;;;;;;1.67;1.57;;;9.10;98.00;;;;;;5033525;28;20473;-66
2021/10/23 01:10:28;;;;;;;1.20;1.10;;;9.00;98.00;;;;;;5033310;28;20512;-67
2021/10/23 01:12:55;;;;;;;1.20;1.00;;;9.00;98.00;;;;;;5033245;28;20490;-67
2021/10/23 01:15:25;;;;;;;1.20;1.00;;;8.90;98.00;;;;;;5033286;28;20511;-67
2021/10/23 01:17:54;;;;;;;1.20;1.00;;;8.90;98.00;;;;;;5033451;28;20579;-67
2021/10/23 01:20:26;;;;;;;1.20;1.00;;;8.70;98.00;;;;;;5033219;28;20921;-67
2021/10/23 01:22:54;;;;;;;1.50;1.00;;;8.60;98.00;;;;;;5033296;28;20458;-67
2021/10/23 01:25:24;;;;;;;1.20;1.10;;;8.70;98.00;;;;;;5033150;28;20513;-67
2021/10/23 01:27:54;;;;;;;1.60;1.10;;;8.70;98.00;;;;;;5033010;28;20454;-67
2021/10/23 01:30:23;;;;;;;1.20;1.00;;;8.60;98.00;;;;;;5033002;28;20515;-67
2021/10/23 01:32:50;;;;;;;1.20;1.10;;;8.50;98.00;;;;;;5032969;28;20482;-66
2021/10/23 01:35:18;;;;;;;1.20;1.00;;;8.50;98.00;;;;;;5033044;28;20459;-67
2021/10/23 01:37:48;;;;;;;1.20;1.00;;;8.40;98.00;;;;;;5032851;28;20552;-67
2021/10/23 01:40:18;;;;;;;2.17;1.20;;;8.30;98.00;;;;;;5032989;28;20487;-67
2021/10/23 01:42:45;;;;;;;1.40;1.10;;;8.30;98.00;;;;;;5032768;28;21139;-67
2021/10/23 01:45:13;;;;;;;1.20;1.10;;;8.30;98.00;;;;;;5032884;28;20485;-67
2021/10/23 01:47:40;;;;;;;1.20;1.00;;;8.30;98.00;;;;;;5031856;28;20548;-67
2021/10/23 01:50:12;;;;;;;1.20;1.00;;;8.40;98.00;;;;;;5032979;28;20457;-67
2021/10/23 01:52:39;;;;;;;1.20;1.00;;;8.50;98.00;;;;;;5032478;28;20486;-66
2021/10/23 01:55:09;;;;;;;1.20;1.00;;;8.60;98.00;;;;;;5032623;28;20515;-67
2021/10/23 01:57:36;;;;;;;1.20;1.00;;;8.60;98.00;;;;;;5032424;28;20538;-67
2021/10/23 02:00:05;;;;;;;1.37;1.20;;;8.70;98.00;;;;;;5032671;28;20456;-67
2021/10/23 02:02:32;;;;;;;1.20;0.90;;;8.70;98.00;;;;;;5032557;28;20461;-66
2021/10/23 02:04:59;;;;;;;1.20;1.00;;;8.70;98.00;;;;;;5032663;28;20457;-66
2021/10/23 02:07:26;;;;;;;1.20;1.10;;;8.50;98.00;;;;;;5032641;28;20514;-66
2021/10/23 02:09:53;;;;;;;1.30;1.10;;;8.30;98.00;;;;;;5032508;28;21239;-67
2021/10/23 02:12:25;;;;;;;1.53;1.23;;;8.30;98.00;;;;;;5032260;28;20489;-66
2021/10/23 02:14:52;;;;;;;1.20;1.00;;;8.30;98.00;;;;;;5015241;28;20460;-67
2021/10/23 02:17:20;;;;;;;3.00;1.30;;;8.30;98.00;;;;;;5031638;28;20467;-66
2021/10/23 02:19:47;;;;;;;1.43;1.10;;;8.40;98.00;;;;;;5032211;28;20466;-67
2021/10/23 02:22:14;;;;;;;1.20;1.10;;;8.40;98.00;;;;;;5032115;28;20483;-66
2021/10/23 02:24:43;;;;;;;1.20;1.10;;;8.30;98.00;;;;;;5031938;28;20529;-66
2021/10/23 02:27:10;;;;;;;1.30;1.10;;;8.20;98.00;;;;;;5031891;28;20456;-67
2021/10/23 02:29:38;;;;;;;1.30;1.10;;;8.10;98.00;;;;;;5032078;28;20549;-66
2021/10/23 02:32:05;;;;;;;1.20;1.00;;;8.00;98.00;;;;;;5031797;28;20545;-66
2021/10/23 02:34:33;;;;;;;1.20;1.00;;;8.00;98.00;;;;;;5031783;28;20519;-67
2021/10/23 02:37:00;;;;;;;1.20;1.00;;;8.00;98.00;;;;;;5031789;28;20455;-67
2021/10/23 02:39:28;;;;;;;1.20;1.00;;;8.10;98.00;;;;;;5031883;28;20483;-67
2021/10/23 02:41:55;;;;;;;1.30;1.10;;;7.90;98.00;;;;;;5031734;28;20456;-66
2021/10/23 02:44:24;;;;;;;1.20;1.00;;;7.90;98.00;;;;;;5031928;28;20802;-67
2021/10/23 02:46:53;;;;;;;1.30;1.20;;;8.00;98.00;;;;;;5031603;28;20462;-67
2021/10/23 02:49:20;;;;;;;1.50;1.20;;;8.10;98.00;;;;;;5031814;28;20507;-66
2021/10/23 02:51:47;;;;;;;1.20;1.00;;;8.00;98.00;;;;;;5031274;28;21035;-67
2021/10/23 02:54:15;;;;;;;1.20;0.90;;;7.90;98.00;;;;;;5031793;28;20466;-67
2021/10/23 02:56:42;;;;;;;1.40;1.20;;;7.90;98.00;;;;;;5031546;28;20454;-66
2021/10/23 02:59:09;;;;;;;1.20;1.00;;;8.00;98.00;;;;;;5031274;28;20453;-67
2021/10/23 03:01:36;;;;;;;1.20;1.10;;;8.00;98.00;;;;;;5031467;28;20510;-67
2021/10/23 03:04:05;;;;;;;1.20;1.00;;;8.00;98.00;;;;;;5031720;28;20535;-67
2021/10/23 03:06:35;;;;;;;2.73;1.30;;;8.10;98.00;;;;;;5031663;28;20981;-67
2021/10/23 03:09:03;;;;;;;1.20;1.10;;;8.20;98.00;;;;;;5014503;28;20973;-67
2021/10/23 03:11:30;;;;;;;1.87;1.20;;;8.30;98.00;;;;;;5031383;28;20876;-67
2021/10/23 03:13:57;;;;;;;6.03;1.63;;;8.50;98.00;;;;;;5031894;28;20487;-67
2021/10/23 03:16:24;;;;;;;1.20;1.20;;;8.50;98.00;;;;;;5031529;28;20488;-67
2021/10/23 03:18:52;;;;;;;1.20;1.00;;;8.50;98.00;;;;;;5031637;28;20452;-66
2021/10/23 03:21:20;;;;;;;1.87;1.17;;;8.60;98.00;;;;;;5031532;28;20951;-67
2021/10/23 03:23:48;;;;;;;1.30;1.17;;;8.60;98.00;;;;;;5031588;28;20511;-67
2021/10/23 03:26:15;;;;;;;1.20;1.00;;;8.60;98.00;;;;;;5031484;28;20507;-67
2021/10/23 03:28:42;;;;;;;1.20;1.00;;;8.60;98.00;;;;;;5034038;28;20464;-67
2021/10/23 03:31:10;;;;;;;1.27;1.10;;;8.60;98.00;;;;;;5035214;28;20491;-67
2021/10/23 03:33:37;;;;;;;1.20;1.00;;;8.60;98.00;;;;;;5035146;28;20487;-67
2021/10/23 03:36:04;;;;;;;1.20;1.00;;;8.70;98.00;;;;;;5035395;28;20944;-67
2021/10/23 03:38:33;;;;;;;1.20;1.00;;;8.60;98.00;;;;;;5034917;28;20464;-67
2021/10/23 03:41:00;;;;;;;1.47;1.10;;;8.50;98.00;;;;;;5035186;28;20463;-67
2021/10/23 03:43:27;;;;;;;1.20;1.00;;;8.30;98.00;;;;;;5035203;28;20462;-67
2021/10/23 03:45:54;;;;;;;1.20;1.00;;;8.10;98.00;;;;;;5034872;28;20528;-67
2021/10/23 03:48:21;;;;;;;1.70;1.10;;;8.10;98.00;;;;;;5034960;28;20469;-67
2021/10/23 03:50:49;;;;;;;1.30;1.00;;;8.20;98.00;;;;;;5034975;28;20464;-66
2021/10/23 03:53:16;;;;;;;1.47;1.17;;;8.30;98.00;;;;;;5034886;28;20520;-66
2021/10/23 03:55:44;;;;;;;1.20;1.00;;;8.30;98.00;;;;;;5034567;28;20495;-67
2021/10/23 03:58:11;;;;;;;1.20;1.00;;;8.30;98.00;;;;;;5034865;28;20510;-66
2021/10/23 04:00:38;;;;;;;1.20;1.10;;;8.50;98.00;;;;;;5034631;28;20464;-67
2021/10/23 04:03:05;;;;;;;1.67;1.10;;;8.70;98.00;;;;;;5034704;28;20948;-67
2021/10/23 04:05:33;;;;;;;1.97;1.40;;;8.70;98.00;;;;;;5034568;28;20461;-67
2021/10/23 04:08:00;;;;;;;1.20;1.00;;;8.60;98.00;;;;;;5034684;28;20976;-66
2021/10/23 04:10:27;;;;;;;8.00;1.20;;;8.70;98.00;;;;;;5034574;28;20754;-67
2021/10/23 04:12:56;;;;;;;1.37;1.10;;;8.50;98.00;;;;;;5034328;28;20527;-67
2021/10/23 04:15:23;;;;;;;1.20;1.00;;;8.50;98.00;;;;;;5016940;28;20461;-67
2021/10/23 04:17:51;;;;;;;1.20;1.00;;;8.50;98.00;;;;;;5034325;28;20504;-67
2021/10/23 04:20:18;;;;;;;1.50;1.20;;;8.70;98.00;;;;;;5034391;28;20459;-67
2021/10/23 04:22:45;;;;;;;1.73;1.20;;;8.60;98.00;;;;;;5034393;28;20500;-67
2021/10/23 04:25:13;;;;;;;1.20;1.00;;;8.50;98.00;;;;;;5034418;28;20927;-66
2021/10/23 04:27:40;;;;;;;1.40;1.30;;;8.50;98.00;;;;;;5034382;28;20461;-67
2021/10/23 04:30:09;;;;;;;1.40;1.10;;;8.60;98.00;;;;;;5034256;28;20521;-67
2021/10/23 04:32:39;;;;;;;1.87;1.43;;;8.70;98.00;;;;;;5033793;28;20484;-67
2021/10/23 04:35:07;;;;;;;2.50;1.20;;;8.50;98.00;;;;;;5033585;28;20463;-67
2021/10/23 04:37:35;;;;;;;1.67;1.10;;;8.50;98.00;;;;;;5033341;28;20514;-67
2021/10/23 04:40:01;;;;;;;1.37;1.10;;;8.40;98.00;;;;;;5033324;28;20563;-67
2021/10/23 04:42:28;;;;;;;1.20;1.10;;;8.40;98.00;;;;;;5016556;28;20494;-67
2021/10/23 04:44:55;;;;;;;1.20;1.00;;;8.40;98.00;;;;;;5034304;28;21000;-67
2021/10/23 04:47:24;;;;;;;1.70;1.37;;;8.40;98.00;;;;;;5034181;28;20940;-67
2021/10/23 04:49:51;;;;;;;1.30;1.00;;;8.30;98.00;;;;;;5034142;28;20465;-66
2021/10/23 04:52:18;;;;;;;1.20;1.00;;;8.20;98.00;;;;;;5034185;28;20487;-67
2021/10/23 04:54:45;;;;;;;1.20;1.00;;;8.10;98.00;;;;;;5034124;28;20790;-67
2021/10/23 04:57:13;;;;;;;1.20;1.00;;;8.10;98.00;;;;;;5033917;28;20460;-67
2021/10/23 04:59:40;;;;;;;1.20;1.10;;;8.20;98.00;;;;;;5033648;28;20468;-67
2021/10/23 05:02:14;;;;;;;1.40;1.10;;;8.20;98.00;;;;;;5033421;28;20534;-67
2021/10/23 05:04:45;;;;;;;1.20;1.00;;;8.10;98.00;;;;;;5033634;28;21010;-67
2021/10/23 05:07:13;;;;;;;1.20;1.00;;;8.20;98.00;;;;;;5033526;28;20513;-66
2021/10/23 05:09:40;;;;;;;1.67;1.10;;;8.10;98.00;;;;;;5033290;28;20453;-67
2021/10/23 05:12:07;;;;;;;1.20;0.93;;;8.00;98.00;;;;;;5033349;28;20539;-66
2021/10/23 05:14:34;;;;;;;1.40;1.07;;;8.00;98.00;;;;;;5033250;28;20877;-66
2021/10/23 05:17:01;;;;;;;1.20;1.00;;;8.20;98.00;;;;;;5033096;28;20495;-67
2021/10/23 05:19:28;;;;;;;1.20;1.00;;;8.30;98.00;;;;;;5033265;28;20455;-67
2021/10/23 05:21:56;;;;;;;1.23;1.03;;;8.40;98.00;;;;;;5033147;28;20527;-67
2021/10/23 05:24:23;;;;;;;1.50;1.10;;;8.40;98.00;;;;;;5033142;28;20468;-67
2021/10/23 05:26:53;;;;;;;1.20;1.00;;;8.40;98.00;;;;;;5033032;28;20495;-67
2021/10/23 05:29:20;;;;;;;1.20;1.00;;;8.50;98.00;;;;;;5032451;28;20464;-67
2021/10/23 05:31:47;;;;;;;1.20;1.10;;;8.50;98.00;;;;;;5032015;28;20964;-66
2021/10/23 05:34:14;;;;;;;1.30;1.10;;;8.50;98.00;;;;;;5014257;28;21004;-66
2021/10/23 05:36:41;;;;;;;1.60;1.20;;;8.60;98.00;;;;;;5031908;28;20493;-67
2021/10/23 05:39:09;;;;;;;1.20;1.00;;;8.60;98.00;;;;;;5032214;28;20936;-66
2021/10/23 05:41:36;;;;;;;1.20;1.10;;;8.60;98.00;;;;;;5031899;28;20454;-67
2021/10/23 05:44:04;;;;;;;1.83;1.20;;;8.60;98.00;;;;;;5032039;28;20546;-66
2021/10/23 05:46:31;;;;;;;1.20;1.00;;;8.60;98.00;;;;;;5031912;28;20459;-67
2021/10/23 05:48:58;;;;;;;1.30;1.10;;;8.60;98.00;;;;;;5032111;28;20457;-67
2021/10/23 05:51:26;;;;;;;2.23;1.30;;;8.70;98.00;;;;;;5031220;28;20458;-66
2021/10/23 05:53:53;;;;;;;1.20;1.10;;;8.70;98.00;;;;;;5031837;28;20524;-66
2021/10/23 05:56:22;;;;;;;1.20;1.07;;;8.70;98.00;;;;;;5031869;28;21020;-66
2021/10/23 05:58:51;;;;;;;1.20;1.20;;;8.70;98.00;;;;;;5031943;28;20513;-67
2021/10/23 06:01:18;;;;;;;1.30;1.00;;;8.80;98.00;;;;;;5031756;28;20502;-66
2021/10/23 06:03:47;;;;;;;1.20;1.00;;;8.70;98.00;;;;;;5031793;28;20457;-67
2021/10/23 06:06:15;;;;;;;1.20;1.10;;;8.60;98.00;;;;;;5031735;28;20498;-67
2021/10/23 06:08:42;;;;;;;1.40;1.20;;;8.50;98.00;;;;;;5031722;28;20459;-67
2021/10/23 06:11:09;;;;;;;1.20;1.00;;;8.50;98.00;;;;;;5031852;28;20512;-67
2021/10/23 06:13:38;;;;;;;1.20;1.00;;;8.70;98.00;;;;;;5031679;28;20881;-67
2021/10/23 06:16:05;;;;;;;1.20;1.00;;;8.70;98.00;;;;;;5031675;28;20521;-66
2021/10/23 06:18:32;;;;;;;1.20;1.00;;;8.70;98.00;;;;;;5031644;28;20509;-66
2021/10/23 06:21:00;;;;;;;1.20;1.10;;;8.70;98.00;;;;;;5031491;28;20852;-66
2021/10/23 06:23:30;;;;;;;1.20;1.10;;;8.60;98.00;;;;;;5031184;28;20908;-67
2021/10/23 06:25:57;;;;;;;1.20;1.03;;;8.60;98.00;;;;;;5030964;28;20466;-66
2021/10/23 06:30:24;;;;;;;1.20;1.00;;;8.60;98.00;;;;;;5150699;27;20557;-65
2021/10/23 06:32:53;;;;;;;2.10;1.57;;;8.50;98.00;;;;;;5129936;27;20454;-65
2021/10/23 06:35:21;;;;;;;1.67;1.20;;;8.50;98.00;;;;;;5130079;28;20457;-65
2021/10/23 06:37:50;;;;;;;1.20;1.00;;;8.40;98.00;;;;;;5129879;28;21022;-65
2021/10/23 06:40:20;;;;;;;1.30;1.00;;;8.50;98.00;;;;;;5129964;28;20797;-65
2021/10/23 06:42:48;;;;;;;1.20;1.10;;;8.70;98.00;;;;;;5129750;28;20457;-65
2021/10/23 06:45:16;;;;;;;1.30;1.23;;;8.70;98.00;;;;;;5129910;28;20884;-65
2021/10/23 06:47:45;;;;;;;1.20;1.00;;;8.60;98.00;;;;;;5129734;28;20461;-65
2021/10/23 06:50:13;;;;;;;1.20;1.10;;;8.60;98.00;;;;;;5129509;27;20486;-65
2021/10/23 06:52:41;;;;;;;1.20;1.00;;;8.60;98.00;;;;;;5128073;28;20456;-65
2021/10/23 06:55:09;;;;;;;1.53;1.23;;;8.70;98.00;;;;;;5129768;28;20458;-65
2021/10/23 06:57:36;;;;;;;1.20;1.00;;;8.80;98.00;;;;;;5129389;28;20454;-64
2021/10/23 07:00:06;;;;;;;2.17;1.70;;;8.70;98.00;;;;;;5129617;28;20496;-65
2021/10/23 07:02:38;;;;;;;2.50;1.63;;;8.90;98.00;;;;;;5129539;28;20483;-64
2021/10/23 07:05:10;;;;;;;1.20;1.00;;;9.10;98.00;;;;;;5129439;28;20457;-65
2021/10/23 07:07:37;;;;;;;2.43;1.33;;;9.10;98.00;;;;;;5129307;28;20451;-65
2021/10/23 07:10:06;;;;;;;1.20;1.00;;;9.20;98.00;;;;;;5129383;27;20513;-65
2021/10/23 07:12:33;;;;;;;1.20;1.10;;;9.10;98.00;;;;;;5129189;28;20490;-65
2021/10/23 07:15:01;;;;;;;1.40;1.30;;;9.10;98.00;;;;;;5129347;28;20457;-66
2021/10/23 07:17:28;;;;;;;1.20;1.10;;;9.10;98.00;;;;;;5129153;28;20482;-64
2021/10/23 07:19:56;;;;;;;1.30;1.10;;;9.10;98.00;;;;;;5129153;28;20501;-64
2021/10/23 07:22:25;;;;;;;2.00;1.30;;;9.20;98.00;;;;;;5129110;28;20514;-65
2021/10/23 07:24:53;;;;;;;1.20;1.10;;;9.20;98.00;;;;;;5128743;27;20504;-65
2021/10/23 07:27:22;;;;;;;1.20;1.10;;;9.30;98.00;;;;;;5129093;28;20944;-65
2021/10/23 07:29:49;;;;;;;1.53;1.40;;;9.40;98.00;;;;;;5128870;28;20481;-65
2021/10/23 07:32:16;;;;;;;2.50;1.33;;;9.40;98.00;;;;;;5129036;28;20514;-65
2021/10/23 07:34:43;;;;;;;1.60;1.10;;;9.50;98.00;;;;;;5129272;28;20857;-65
2021/10/23 07:37:10;;;;;;;1.33;1.17;;;9.50;98.00;;;;;;5128940;28;20457;-65
2021/10/23 07:39:39;;;;;;;1.93;1.30;;;9.50;98.00;;;;;;5126966;28;20497;-66
2021/10/23 07:42:07;;;;;;;1.60;1.20;;;9.50;98.00;;;;;;5114425;28;20972;-65
2021/10/23 07:44:34;;;;;;;1.20;1.10;;;9.50;98.00;;;;;;5114491;28;20506;-65
2021/10/23 07:47:01;;;;;;;1.20;1.00;;;9.50;98.00;;;;;;5114796;28;20485;-64
2021/10/23 07:49:29;;;;;;;2.53;1.57;;;9.50;98.00;;;;;;5114797;28;21199;-65
2021/10/23 07:51:56;;;;;;;1.40;1.20;;;9.60;98.00;;;;;;5112083;27;20973;-64
2021/10/23 07:54:23;;;;;;;1.20;1.00;;;9.70;98.00;;;;;;5121474;27;20493;-64
2021/10/23 07:56:51;;;;;;;1.37;1.13;;;9.90;98.00;;;;;;5124419;27;20501;-64
2021/10/23 07:59:18;;;;;;;1.70;1.33;;;9.90;98.00;;;;;;5131260;27;20491;-64
2021/10/23 08:01:45;;;;;;;1.83;1.40;;;10.00;98.00;;;;;;5129926;27;20868;-65
2021/10/23 08:04:12;;;;;;;1.20;1.00;;;10.00;98.00;;;;;;5130207;27;20459;-65
2021/10/23 08:06:39;;;;;;;1.47;1.47;;;10.10;98.00;;;;;;5134907;27;20484;-65
2021/10/23 08:09:11;;;;;;;1.57;1.20;;;10.20;98.00;;;;;;5134957;27;20521;-64
2021/10/23 08:11:40;;;;;;;1.20;1.10;;;10.10;98.00;;;;;;5134945;27;20446;-65
2021/10/23 08:14:09;;;;;;;1.20;1.00;;;10.00;98.00;;;;;;5134170;27;20469;-65
2021/10/23 08:16:36;;;;;;;1.20;1.10;;;10.20;98.00;;;;;;5134757;27;20517;-64
2021/10/23 08:19:07;;;;;;;1.97;1.47;;;10.20;98.00;;;;;;5134804;27;20965;-65
2021/10/23 08:21:35;;;;;;;1.20;1.00;;;10.20;98.00;;;;;;5134848;27;20940;-65
2021/10/23 08:24:02;;;;;;;1.50;1.20;;;10.20;98.00;;;;;;5134920;27;20829;-65
2021/10/23 08:26:29;;;;;;;1.40;1.30;;;10.30;98.00;;;;;;5134955;27;20450;-64
2021/10/23 08:28:57;;;;;;;1.20;1.20;;;10.40;98.00;;;;;;5134591;27;20562;-64
2021/10/23 08:31:25;;;;;;;1.30;1.30;;;10.50;98.00;;;;;;5133368;27;20454;-65
2021/10/23 08:33:52;;;;;;;1.20;1.00;;;10.70;98.00;;;;;;5134702;27;20462;-64
2021/10/23 08:36:19;;;;;;;1.20;1.03;;;10.90;98.00;;;;;;5134314;27;20485;-64
2021/10/23 08:38:46;;;;;;;1.20;1.10;;;11.10;98.00;;;;;;5134729;27;20462;-65
2021/10/23 08:41:14;;;;;;;1.20;1.13;;;11.10;98.00;;;;;;5134666;27;20800;-65
2021/10/23 08:43:43;;;;;;;1.30;1.20;;;11.20;98.00;;;;;;5134624;27;20522;-65
2021/10/23 08:46:14;;;;;;;1.20;1.10;;;11.30;98.00;;;;;;5134612;27;20451;-66
2021/10/23 08:48:43;;;;;;;1.20;1.10;;;11.20;98.00;;;;;;5134633;27;20916;-65
2021/10/23 08:51:10;;;;;;;1.73;1.30;;;11.20;98.00;;;;;;5134304;27;20521;-66
2021/10/23 08:53:38;;;;;;;1.40;1.20;;;11.20;98.00;;;;;;5133779;27;20454;-65
2021/10/23 08:56:06;;;;;;;1.20;1.00;;;11.10;98.00;;;;;;5134274;27;20545;-65
2021/10/23 08:58:33;;;;;;;1.20;1.00;;;11.20;98.00;;;;;;5134553;27;20506;-65
2021/10/23 09:01:01;;;;;;;1.20;1.20;;;11.30;98.00;;;;;;5134176;27;20458;-65
2021/10/23 09:03:28;;;;;;;1.40;1.30;;;11.30;98.00;;;;;;5134184;27;20461;-65
2021/10/23 09:05:56;;;;;;;2.97;1.67;;;11.30;98.00;;;;;;5133847;27;20460;-66
2021/10/23 09:08:25;;;;;;;1.20;1.10;;;11.10;98.00;;;;;;5133924;27;20504;-65
2021/10/23 09:10:53;;;;;;;1.57;1.20;;;11.00;98.00;;;;;;5134036;27;20515;-65
2021/10/23 09:13:28;;;;;;;1.30;1.10;;;11.00;98.00;;;;;;5133745;27;20564;-65
2021/10/23 09:15:56;;;;;;;1.30;1.20;;;11.30;98.00;;;;;;5132379;27;20453;-65
2021/10/23 09:18:41;;;;;;;1.83;1.13;;;11.30;98.00;;;;;;5133676;27;20874;-65
2021/10/23 09:21:19;;;;;;;2.27;1.30;;;11.40;98.00;;;;;;5133615;27;20492;-66
2021/10/23 09:23:47;;;;;;;1.20;0.93;;;11.50;98.00;;;;;;5133673;27;20454;-65
2021/10/23 09:26:31;;;;;;;2.50;1.33;;;11.70;98.00;;;;;;5133463;27;20508;-65
2021/10/23 09:29:15;;;;;;;1.30;1.30;;;12.10;98.00;;;;;;5133418;27;20455;-65
2021/10/23 09:31:46;;;;;;;1.53;1.10;;;12.40;98.00;;;;;;5133190;27;20502;-65
2021/10/23 09:34:15;;;;;;;6.90;1.70;;;12.60;98.00;;;;;;5133448;27;20816;-66
2021/10/23 09:36:46;;;;;;;1.70;1.27;;;12.70;98.00;;;;;;5133349;27;20460;-65
2021/10/23 09:39:21;;;;;;;1.50;1.27;;;12.80;98.00;;;;;;5133374;27;20508;-65
2021/10/23 09:42:07;;;;;;;1.70;1.60;;;13.00;98.00;;;;;;5133315;27;20458;-65
2021/10/23 09:44:35;;;;;;;1.40;1.30;;;13.20;98.00;;;;;;5132973;27;20468;-65
2021/10/23 09:47:02;;;;;;;1.30;1.20;;;13.30;98.00;;;;;;5132324;27;21015;-65
2021/10/23 09:49:29;;;;;;;1.30;1.20;;;13.50;98.00;;;;;;5132291;27;20580;-65
2021/10/23 09:52:05;;;;;;;1.70;1.60;;;13.70;98.00;;;;;;5132772;27;20493;-65
2021/10/23 09:54:33;;;;;;;1.73;1.63;;;13.80;98.00;;;;;;5133237;27;21067;-65
2021/10/23 09:57:00;;;;;;;7.23;1.83;;;13.90;98.00;;;;;;5133010;27;20454;-65
2021/10/23 09:59:29;;;;;;;1.30;1.30;;;13.90;98.00;;;;;;5133030;27;20818;-65
2021/10/23 10:01:57;;;;;;;2.30;1.50;;;14.00;98.00;;;;;;5132840;27;20456;-66
2021/10/23 10:04:26;;;;;;;1.43;1.33;;;13.90;98.00;;;;;;5132682;27;20939;-67
2021/10/23 10:06:54;;;;;;;1.27;1.17;;;13.90;98.00;;;;;;5132957;27;20451;-67
2021/10/23 10:09:25;;;;;;;1.40;1.20;;;14.10;98.00;;;;;;5133002;27;20452;-66
2021/10/23 10:11:54;;;;;;;1.20;1.10;;;14.30;98.00;;;;;;5132811;27;20465;-67
2021/10/23 10:14:24;;;;;;;1.20;1.20;;;14.40;98.00;;;;;;5132903;27;20455;-66
2021/10/23 10:16:54;;;;;;;1.20;1.10;;;14.40;98.00;;;;;;5132869;27;20468;-67
2021/10/23 10:19:21;;;;;;;1.20;1.10;;;14.30;98.00;;;;;;5133171;27;20480;-66
2021/10/23 10:21:50;;;;;;;1.20;1.17;;;14.20;98.00;;;;;;5132640;27;20457;-67
2021/10/23 10:24:19;;;;;;;1.20;1.00;;;14.00;98.00;;;;;;5122097;27;20460;-66
2021/10/23 10:27:09;;;;;;;1.20;1.03;;;13.80;98.00;;;;;;5125033;28;20456;-66
2021/10/23 10:29:48;;;;;;;1.43;1.07;;;13.70;98.00;;;;;;5127888;28;20482;-67
2021/10/23 10:32:20;;;;;;;1.97;1.40;;;13.70;98.00;;;;;;5103260;28;20461;-67
2021/10/23 10:35:42;;;;;;;1.93;1.23;;;13.80;98.00;;;;;;5118523;28;20448;-68
2021/10/23 10:44:17;;;;;;;1.30;1.20;;;14.30;98.00;;;;;;5115392;28;20457;-67
2021/10/23 10:47:11;;;;;;;2.13;1.37;;;14.70;98.00;;;;;;5111092;28;21034;-67
2021/10/23 10:49:56;;;;;;;1.20;1.13;;;15.10;97.90;;;;;;5103598;28;20519;-68
2021/10/23 10:52:59;;;;;;;1.40;1.30;;;15.30;95.50;;;;;;5124854;28;20883;-68
2021/10/23 10:55:37;;;;;;;1.20;1.13;;;15.50;93.50;;;;;;5119044;28;20503;-67
2021/10/23 10:58:06;;;;;;;1.40;1.13;;;15.70;93.70;;;;;;5119025;28;20507;-68
2021/10/23 11:01:06;;;;;;;2.13;1.30;;;16.00;93.30;;;;;;5118911;28;20529;-67
2021/10/23 11:03:36;;;;;;;1.67;1.50;;;16.20;92.70;;;;;;5114968;28;20455;-68
2021/10/23 11:06:44;;;;;;;1.60;1.50;;;16.20;92.40;;;;;;5114709;28;20456;-67
2021/10/23 11:09:30;;;;;;;1.20;1.10;;;16.50;91.60;;;;;;5086820;28;20799;-68
2021/10/23 11:12:16;;;;;;;1.20;1.20;;;16.80;90.90;;;;;;5113826;28;20475;-67
2021/10/23 11:14:43;;;;;;;1.63;1.20;;;17.00;89.70;;;;;;5123287;27;20469;-67
2021/10/23 11:17:20;;;;;;;1.20;1.17;;;16.90;88.40;;;;;;5127166;27;20522;-68
2021/10/23 11:20:12;;;;;;;1.20;1.10;;;17.00;87.00;;;;;;5123296;27;20520;-67
2021/10/23 11:22:40;;;;;;;1.50;1.40;;;17.20;85.70;;;;;;5115066;27;20455;-67
2021/10/23 11:25:09;;;;;;;1.60;1.40;;;17.10;86.60;;;;;;5131842;27;20464;-68
2021/10/23 11:27:42;;;;;;;2.57;1.67;;;17.40;86.70;;;;;;5113515;27;20461;-67
2021/10/23 11:30:13;;;;;;;1.57;1.50;;;17.60;86.70;;;;;;5102508;28;20476;-68
2021/10/23 11:32:42;;;;;;;1.20;1.07;;;17.90;87.80;;;;;;5110670;28;20453;-69
2021/10/23 11:35:11;;;;;;;3.00;1.50;;;18.10;87.10;;;;;;5091925;28;20825;-68
2021/10/23 11:37:39;;;;;;;1.60;1.23;;;18.20;87.30;;;;;;5102239;28;20466;-67
2021/10/23 11:40:08;;;;;;;1.90;1.43;;;18.00;85.10;;;;;;5102815;28;20536;-68
2021/10/23 11:42:36;;;;;;;1.70;1.30;;;17.70;84.90;;;;;;5110323;28;20519;-68
2021/10/23 11:45:12;;;;;;;1.30;1.20;;;17.30;85.80;;;;;;5111595;28;20514;-68
2021/10/23 11:47:40;;;;;;;1.57;1.20;;;16.90;86.30;;;;;;5102114;28;20458;-68
2021/10/23 11:50:17;;;;;;;1.83;1.40;;;16.50;88.30;;;;;;5106413;28;20539;-68
2021/10/23 11:52:58;;;;;;;1.20;1.20;;;16.00;85.50;;;;;;5101665;28;20456;-67
2021/10/23 11:55:33;;;;;;;1.40;1.33;;;15.40;88.50;;;;;;5086004;28;20823;-67
2021/10/23 11:58:02;;;;;;;1.20;1.10;;;14.80;90.60;;;;;;5101034;28;20460;-68
2021/10/23 12:00:30;;;;;;;1.20;1.17;;;14.40;91.30;;;;;;5101437;28;20857;-67
2021/10/23 12:03:00;;;;;;;1.20;1.20;;;14.00;90.70;;;;;;5112255;28;20452;-65
2021/10/23 12:05:35;;;;;;;1.20;1.07;;;13.80;93.80;;;;;;5114615;28;20455;-66
2021/10/23 12:08:22;;;;;;;1.40;1.23;;;13.70;96.10;;;;;;5114398;28;20460;-65
2021/10/23 12:11:20;;;;;;;1.50;1.27;;;13.70;96.80;;;;;;5114593;28;20996;-66
2021/10/23 12:14:05;;;;;;;1.30;1.10;;;14.00;94.60;;;;;;5114423;28;20455;-66
2021/10/23 12:16:38;;;;;;;2.30;1.30;;;14.40;93.80;;;;;;5114066;27;20452;-66
2021/10/23 12:19:11;;;;;;;1.20;1.10;;;14.70;91.80;;;;;;5114457;28;20464;-66
2021/10/23 12:21:48;;;;;;;1.30;1.10;;;15.00;92.10;;;;;;5114275;28;20477;-66
2021/10/23 12:24:21;;;;;;;1.50;1.10;;;15.20;90.10;;;;;;5114158;28;20859;-66
2021/10/23 12:27:07;;;;;;;1.33;1.17;;;15.30;88.60;;;;;;5114143;28;20479;-66
2021/10/23 12:29:36;;;;;;;1.30;1.27;;;15.30;89.40;;;;;;5114004;28;20487;-66
2021/10/23 12:32:05;;;;;;;1.43;1.27;;;15.50;88.00;;;;;;5113993;28;20480;-66
2021/10/23 12:34:55;;;;;;;1.30;1.20;;;15.60;87.40;;;;;;5114178;28;20460;-66
2021/10/23 12:37:43;;;;;;;1.20;1.10;;;15.80;86.40;;;;;;5112883;28;21006;-66
2021/10/23 12:40:23;;;;;;;1.20;1.10;;;15.90;86.90;;;;;;5114086;28;20455;-66
2021/10/23 12:42:52;;;;;;;1.20;1.20;;;16.00;86.20;;;;;;5113864;28;20451;-66
2021/10/23 12:45:22;;;;;;;1.30;1.30;;;16.10;85.80;;;;;;5114204;28;20614;-66
2021/10/23 12:47:50;;;;;;;1.20;1.20;;;15.80;85.00;;;;;;5113987;28;20520;-66
2021/10/23 12:50:20;;;;;;;1.20;1.10;;;15.90;87.80;;;;;;5113936;28;20891;-66
2021/10/23 12:52:47;;;;;;;1.43;1.23;;;16.20;87.10;;;;;;5113866;28;20458;-66
2021/10/23 12:55:15;;;;;;;9.20;1.30;;;16.50;86.70;;;;;;5113984;28;20459;-66
2021/10/23 12:57:42;;;;;;;1.30;1.20;;;16.80;86.50;;;;;;5113924;28;20511;-66
2021/10/23 13:00:11;;;;;;;1.20;1.10;;;16.90;84.50;;;;;;5113858;28;20784;-66
2021/10/23 13:02:38;;;;;;;1.20;1.10;;;17.00;84.00;;;;;;5113723;28;20482;-66
2021/10/23 13:05:06;;;;;;;1.20;1.00;;;17.00;84.30;;;;;;5113946;28;20458;-66
2021/10/23 13:07:34;;;;;;;1.30;1.10;;;16.60;84.90;;;;;;5113295;28;20461;-66
2021/10/23 13:10:01;;;;;;;1.20;1.00;;;16.20;85.90;;;;;;5113697;28;20871;-66
2021/10/23 13:12:32;;;;;;;1.20;1.10;;;15.90;86.30;;;;;;5113107;28;20499;-66
2021/10/23 13:14:59;;;;;;;1.30;1.20;;;15.30;86.70;;;;;;5113400;28;20455;-65